Terminal Aerodrome Forecast
Issued by NWS Sterling, VA

Current Version | Previous Version | Graphics & Text | Print | Product List | Glossary On
Versions: 1 2 3 4 5 6 7 8 9 10 11 12 13 14 15 16 17 18 19 20 21 22 23 24
000
FTUS41 KLWX 271841 AAA
TAFIAD
TAF AMD
KIAD 271841Z 2719/2824 VRB03KT P6SM VCTS SCT060CB BKN150
      TEMPO 2719/2721 4SM -TSRA BR BKN015CB
     FM272300 00000KT P6SM VCTS BKN050CB
     FM280400 00000KT P6SM SCT050 BKN060
     FM280600 00000KT 3SM BR FEW050 SCT250
     FM281300 02005KT P6SM SCT250
     FM281700 04006KT P6SM SCT050=

USA.gov is the U.S. government's official web portal to all federal, state and local government web resources and services.